createdAt,value
2023-04-14T00:00:42.403Z,18.40
2023-04-14T00:01:45.404Z,18.40
2023-04-14T00:02:48.012Z,18.40
2023-04-14T00:03:50.660Z,18.40
2023-04-14T00:04:54.350Z,18.40
2023-04-14T00:05:56.998Z,18.30
2023-04-14T00:07:00.187Z,18.30
2023-04-14T00:08:02.858Z,18.30
2023-04-14T00:09:05.528Z,18.40
2023-04-14T00:10:11.512Z,18.40
2023-04-14T00:11:14.175Z,18.40
2023-04-14T00:12:16.530Z,18.40
2023-04-14T00:13:18.896Z,18.40
2023-04-14T00:14:21.281Z,18.00
2023-04-14T00:15:23.767Z,17.40
2023-04-14T00:16:26.180Z,17.00
2023-04-14T00:17:28.677Z,16.90
2023-04-14T00:18:31.173Z,16.80
2023-04-14T00:19:35.987Z,16.60
2023-04-14T00:20:38.547Z,16.40
2023-04-14T00:21:43.098Z,16.20
2023-04-14T00:22:45.611Z,16.00
2023-04-14T00:23:48.173Z,15.90
2023-04-14T00:24:50.787Z,15.80
2023-04-14T00:25:53.189Z,15.70
2023-04-14T00:26:56.899Z,15.70
2023-04-14T00:27:59.442Z,15.70
2023-04-14T00:29:02.129Z,15.70
2023-04-14T00:30:05.453Z,15.70
2023-04-14T00:31:11.240Z,15.60
2023-04-14T00:32:13.685Z,15.60
2023-04-14T00:33:16.092Z,15.60
2023-04-14T00:34:18.521Z,15.50
2023-04-14T00:35:21.417Z,15.40
2023-04-14T00:36:23.785Z,15.40
2023-04-14T00:37:27.211Z,15.30
2023-04-14T00:38:29.635Z,15.30
2023-04-14T00:39:32.276Z,15.30
2023-04-14T00:40:35.402Z,15.20
2023-04-14T00:41:37.898Z,15.20
2023-04-14T00:42:47.404Z,15.20
2023-04-14T00:43:54.050Z,15.10
2023-04-14T00:44:56.453Z,15.10
2023-04-14T00:45:58.976Z,15.10
2023-04-14T00:47:02.288Z,15.10
2023-04-14T00:48:04.695Z,15.10
2023-04-14T00:49:07.469Z,15.20
2023-04-14T00:50:10.811Z,15.20
2023-04-14T00:51:13.690Z,15.20
2023-04-14T00:52:19.336Z,15.20
2023-04-14T00:53:22.082Z,15.10
2023-04-14T00:54:26.640Z,15.20
2023-04-14T00:55:29.770Z,15.40
2023-04-14T00:56:32.223Z,15.50
2023-04-14T00:57:35.394Z,15.50
2023-04-14T00:58:39.029Z,15.50
2023-04-14T00:59:41.452Z,15.60
2023-04-14T01:00:44.246Z,15.60
2023-04-14T01:01:47.410Z,15.60
2023-04-14T01:02:50.468Z,15.60
2023-04-14T01:03:55.915Z,15.60
2023-04-14T01:04:58.890Z,15.60
2023-04-14T01:06:01.584Z,15.60
2023-04-14T01:07:04.183Z,15.60
2023-04-14T01:08:06.789Z,15.60
2023-04-14T01:09:10.189Z,15.60
2023-04-14T01:10:12.739Z,15.60
2023-04-14T01:11:36.335Z,15.60
2023-04-14T01:12:56.118Z,15.50
2023-04-14T01:14:36.448Z,15.50
2023-04-14T01:15:41.366Z,15.50
2023-04-14T01:16:45.654Z,15.50
2023-04-14T01:18:21.854Z,15.50
2023-04-14T01:19:43.157Z,15.40
2023-04-14T01:20:50.334Z,15.40
2023-04-14T01:22:03.376Z,15.40
2023-04-14T01:23:12.763Z,15.40
2023-04-14T01:24:29.454Z,15.40
2023-04-14T01:25:53.539Z,15.40
2023-04-14T01:27:27.506Z,15.40
2023-04-14T01:29:00.099Z,15.30
2023-04-14T01:30:52.364Z,15.30
2023-04-14T01:32:10.261Z,15.30
2023-04-14T01:33:18.382Z,15.30
2023-04-14T01:34:29.394Z,15.30
2023-04-14T01:35:44.331Z,15.30
2023-04-14T01:37:04.157Z,15.20
2023-04-14T01:38:17.834Z,15.20
2023-04-14T01:39:24.882Z,15.20
2023-04-14T01:40:29.410Z,15.20
2023-04-14T01:41:34.244Z,15.20
2023-04-14T01:42:42.996Z,15.20
2023-04-14T01:43:48.806Z,15.20
2023-04-14T01:44:56.706Z,15.20
2023-04-14T01:46:04.990Z,15.20
2023-04-14T01:47:12.634Z,15.10
2023-04-14T01:48:16.766Z,15.10
2023-04-14T01:49:22.175Z,15.10
2023-04-14T01:50:26.369Z,15.10
2023-04-14T01:51:32.345Z,15.10
2023-04-14T01:52:37.477Z,15.10
2023-04-14T01:53:42.876Z,15.10
2023-04-14T01:54:51.059Z,15.00
2023-04-14T01:55:56.072Z,15.10
2023-04-14T01:57:01.798Z,15.10
2023-04-14T01:58:06.939Z,15.00
2023-04-14T01:59:11.938Z,15.00
2023-04-14T02:00:17.252Z,15.00
2023-04-14T02:01:20.149Z,15.00
2023-04-14T02:02:24.552Z,15.00
2023-04-14T02:03:27.890Z,15.00
2023-04-14T02:04:32.778Z,15.00
2023-04-14T02:05:38.713Z,15.00
2023-04-14T02:06:42.461Z,15.00
2023-04-14T02:07:46.902Z,14.90
2023-04-14T02:08:50.981Z,14.90
2023-04-14T02:09:55.328Z,14.90
2023-04-14T02:10:59.026Z,14.90
2023-04-14T02:12:08.017Z,14.80
2023-04-14T02:13:12.067Z,14.80
2023-04-14T02:14:16.510Z,14.80
2023-04-14T02:15:22.342Z,14.80
2023-04-14T02:16:26.243Z,14.90
2023-04-14T02:17:30.028Z,14.80
2023-04-14T02:18:33.357Z,14.80
2023-04-14T02:19:37.060Z,14.80
2023-04-14T02:20:44.804Z,14.80
2023-04-14T02:21:49.505Z,14.80
2023-04-14T02:22:51.968Z,14.70
2023-04-14T02:23:54.325Z,14.70
2023-04-14T02:24:56.702Z,14.70
2023-04-14T02:26:07.791Z,14.70
2023-04-14T02:27:18.830Z,14.70
2023-04-14T02:28:27.956Z,14.70
2023-04-14T02:29:32.563Z,14.70
2023-04-14T02:30:44.140Z,14.60
2023-04-14T02:31:56.710Z,14.60
2023-04-14T02:33:05.940Z,14.60
2023-04-14T02:34:11.298Z,14.60
2023-04-14T02:35:39.766Z,14.60
2023-04-14T02:37:09.480Z,14.60
2023-04-14T02:38:20.872Z,14.60
2023-04-14T02:50:29.288Z,14.40
2023-04-14T02:51:41.452Z,14.10
2023-04-14T02:52:51.354Z,13.90
2023-04-14T02:53:56.760Z,13.70
2023-04-14T02:55:12.541Z,14.10
2023-04-14T02:56:15.739Z,14.70
2023-04-14T02:57:21.829Z,15.10
2023-04-14T02:58:27.332Z,15.50
2023-04-14T02:59:32.252Z,15.80
2023-04-14T03:00:40.341Z,16.10
2023-04-14T03:01:45.486Z,16.40
2023-04-14T03:02:49.406Z,16.60
2023-04-14T03:03:56.086Z,16.80
2023-04-14T03:05:00.699Z,17.10
2023-04-14T03:06:19.539Z,17.30
2023-04-14T03:07:23.321Z,17.50
2023-04-14T03:08:27.932Z,17.70
2023-04-14T03:09:31.955Z,17.80
2023-04-14T03:10:35.399Z,18.00
2023-04-14T03:11:39.794Z,18.10
2023-04-14T03:12:45.058Z,18.20
2023-04-14T03:13:53.243Z,18.20
2023-04-14T03:14:56.549Z,18.30
2023-04-14T03:15:59.615Z,18.30
2023-04-14T03:17:04.362Z,18.40
2023-04-14T03:18:07.616Z,18.40
2023-04-14T03:19:12.542Z,18.40
2023-04-14T03:20:21.749Z,18.40
2023-04-14T03:21:25.273Z,18.40
2023-04-14T03:22:28.868Z,18.50
2023-04-14T03:23:34.251Z,18.50
2023-04-14T03:24:42.479Z,18.50
2023-04-14T03:25:46.599Z,18.60
2023-04-14T03:27:03.022Z,18.60
2023-04-14T03:28:10.669Z,18.60
2023-04-14T03:29:19.944Z,18.60
2023-04-14T03:30:26.157Z,18.70
2023-04-14T03:31:34.018Z,18.70
2023-04-14T03:32:42.917Z,18.70
2023-04-14T03:33:55.693Z,18.70
2023-04-14T03:35:01.369Z,18.80
2023-04-14T03:36:04.663Z,18.80
2023-04-14T03:37:09.182Z,18.80
2023-04-14T03:38:16.233Z,18.80
2023-04-14T03:39:24.833Z,18.80
2023-04-14T03:40:31.731Z,18.80
2023-04-14T03:41:40.153Z,18.90
2023-04-14T03:42:46.164Z,18.60
2023-04-14T03:43:56.847Z,17.80
2023-04-14T03:45:00.721Z,17.20
2023-04-14T03:46:05.696Z,16.60
2023-04-14T03:47:10.568Z,16.30
2023-04-14T03:48:18.483Z,16.10
2023-04-14T03:49:25.595Z,16.00
2023-04-14T03:50:32.100Z,16.40
2023-04-14T03:51:36.564Z,16.90
2023-04-14T03:52:45.566Z,17.10
2023-04-14T03:53:52.716Z,17.50
2023-04-14T03:54:59.553Z,17.80
2023-04-14T03:56:04.625Z,18.00
2023-04-14T03:57:10.671Z,18.20
2023-04-14T03:58:15.859Z,18.40
2023-04-14T03:59:20.081Z,18.40
2023-04-14T04:00:23.904Z,17.70
2023-04-14T04:01:27.898Z,17.30
2023-04-14T04:02:33.053Z,17.50
2023-04-14T04:03:39.117Z,17.90
2023-04-14T04:04:43.422Z,18.10
2023-04-14T04:05:46.208Z,18.30
2023-04-14T04:06:50.097Z,18.40
2023-04-14T04:07:53.658Z,18.50
2023-04-14T04:08:57.746Z,18.60
2023-04-14T04:10:00.708Z,18.60
2023-04-14T04:11:07.378Z,18.70
2023-04-14T04:12:10.893Z,18.70
2023-04-14T04:13:17.646Z,18.80
2023-04-14T04:14:25.639Z,18.80
2023-04-14T04:15:32.994Z,18.80
2023-04-14T04:16:38.645Z,18.90
2023-04-14T04:17:44.600Z,18.90
2023-04-14T04:18:49.056Z,18.90
2023-04-14T04:19:57.167Z,19.00
2023-04-14T04:21:02.388Z,19.00
2023-04-14T04:22:07.667Z,19.00
2023-04-14T04:23:12.373Z,19.10
2023-04-14T04:24:18.773Z,19.10
2023-04-14T04:25:21.436Z,19.10
2023-04-14T04:26:36.557Z,19.10
2023-04-14T04:27:39.161Z,19.10
2023-04-14T04:28:49.199Z,19.10
2023-04-14T04:29:52.350Z,19.10
2023-04-14T04:30:59.141Z,19.10
2023-04-14T04:32:01.989Z,19.10
2023-04-14T04:33:06.347Z,19.20
2023-04-14T04:34:09.809Z,19.20
2023-04-14T04:35:15.383Z,19.20
2023-04-14T04:36:21.640Z,19.20
2023-04-14T04:37:28.643Z,19.20
2023-04-14T04:38:32.102Z,19.20
2023-04-14T04:39:34.820Z,19.20
2023-04-14T04:40:41.262Z,19.20
2023-04-14T04:42:06.612Z,19.20
2023-04-14T04:43:09.345Z,19.20
2023-04-14T04:44:11.886Z,19.30
2023-04-14T04:45:36.440Z,19.30
2023-04-14T04:46:54.791Z,19.30
2023-04-14T04:48:04.371Z,19.30
2023-04-14T04:49:10.310Z,19.40
2023-04-14T04:50:13.634Z,19.20
2023-04-14T04:51:17.955Z,19.00
2023-04-14T04:52:20.418Z,18.80
2023-04-14T04:53:22.955Z,18.70
2023-04-14T04:54:27.314Z,18.60
2023-04-14T04:55:29.816Z,18.50
2023-04-14T04:56:33.587Z,18.60
2023-04-14T04:57:36.316Z,18.80
2023-04-14T04:58:38.778Z,18.90
2023-04-14T04:59:41.580Z,19.00
2023-04-14T05:00:44.094Z,19.10
2023-04-14T05:01:46.769Z,19.20
2023-04-14T05:02:53.498Z,19.20
2023-04-14T05:03:56.315Z,19.20
2023-04-14T05:05:00.380Z,19.30
2023-04-14T05:06:04.756Z,19.30
2023-04-14T05:07:09.027Z,19.30
2023-04-14T05:08:14.435Z,19.40
2023-04-14T05:09:19.159Z,19.40
2023-04-14T05:10:25.563Z,19.40
2023-04-14T05:11:28.711Z,19.40
2023-04-14T05:12:31.427Z,19.50
2023-04-14T05:13:34.199Z,19.50
2023-04-14T05:14:36.929Z,19.50
2023-04-14T05:15:39.996Z,19.50
2023-04-14T05:16:42.551Z,19.50
2023-04-14T05:17:45.120Z,19.60
2023-04-14T05:18:47.730Z,19.60
2023-04-14T05:19:50.710Z,19.50
2023-04-14T05:20:54.236Z,19.50
2023-04-14T05:21:58.539Z,19.60
2023-04-14T05:23:01.486Z,19.60
2023-04-14T05:24:04.693Z,19.60
2023-04-14T05:25:07.957Z,19.60
2023-04-14T05:27:19.045Z,19.70
2023-04-14T05:28:21.389Z,19.70
2023-04-14T05:29:23.911Z,19.70
2023-04-14T05:30:26.573Z,19.70
2023-04-14T05:31:29.124Z,19.70
2023-04-14T05:32:32.137Z,19.70
2023-04-14T05:33:35.396Z,19.70
2023-04-14T05:34:37.995Z,19.70
2023-04-14T05:35:40.573Z,19.70
2023-04-14T05:36:43.184Z,19.70
2023-04-14T05:37:45.995Z,19.70
2023-04-14T05:38:48.472Z,19.70
2023-04-14T05:39:51.069Z,19.80
2023-04-14T05:40:53.737Z,19.80
2023-04-14T05:41:56.816Z,19.80
2023-04-14T05:42:59.746Z,19.80
2023-04-14T05:44:04.058Z,19.80
2023-04-14T05:45:07.507Z,19.80
2023-04-14T05:46:13.560Z,19.80
2023-04-14T05:47:16.827Z,19.90
2023-04-14T05:48:19.224Z,19.90
2023-04-14T05:49:22.020Z,19.90
2023-04-14T05:50:24.422Z,19.90
2023-04-14T05:51:27.847Z,19.00
2023-04-14T05:52:30.410Z,18.30
2023-04-14T05:53:32.807Z,18.10
2023-04-14T05:54:35.336Z,17.70
2023-04-14T05:55:39.910Z,18.00
2023-04-14T05:56:42.776Z,18.50
2023-04-14T05:57:46.964Z,18.80
2023-04-14T05:58:54.136Z,18.90
2023-04-14T05:59:58.187Z,19.00
2023-04-14T06:01:01.003Z,19.10
2023-04-14T06:02:07.415Z,19.20
2023-04-14T06:03:10.424Z,19.30
2023-04-14T06:04:15.316Z,19.40
2023-04-14T06:05:18.596Z,19.50
2023-04-14T06:06:21.192Z,19.50
2023-04-14T06:07:24.205Z,19.50
2023-04-14T06:08:26.690Z,19.60
2023-04-14T06:09:29.047Z,19.70
2023-04-14T06:10:32.180Z,19.70
2023-04-14T06:11:34.687Z,19.70
2023-04-14T06:12:39.893Z,19.70
2023-04-14T06:13:42.234Z,19.80
2023-04-14T06:14:44.573Z,19.80
2023-04-14T06:15:50.178Z,19.80
2023-04-14T06:16:58.560Z,19.80
2023-04-14T06:18:01.318Z,19.90
2023-04-14T06:19:04.762Z,19.90
2023-04-14T06:20:08.989Z,19.90
2023-04-14T06:21:12.203Z,19.90
2023-04-14T06:22:19.875Z,19.90
2023-04-14T06:23:24.725Z,19.90
2023-04-14T06:24:27.220Z,20.00
2023-04-14T06:25:34.613Z,19.90
2023-04-14T06:26:37.660Z,20.00
2023-04-14T06:27:40.413Z,20.00
2023-04-14T06:28:43.926Z,20.00
2023-04-14T06:29:46.757Z,20.00
2023-04-14T06:30:49.284Z,20.00
2023-04-14T06:31:51.963Z,20.00
2023-04-14T06:32:55.110Z,19.80
2023-04-14T06:33:57.558Z,19.60
2023-04-14T06:34:59.919Z,19.50
2023-04-14T06:36:02.929Z,19.40
2023-04-14T06:37:05.658Z,19.40
2023-04-14T06:38:10.320Z,19.50
2023-04-14T06:39:13.456Z,19.30
2023-04-14T06:40:15.929Z,19.20
2023-04-14T06:41:18.833Z,19.10
2023-04-14T06:42:21.749Z,19.00
2023-04-14T06:43:24.172Z,19.10
2023-04-14T06:44:26.673Z,19.40
2023-04-14T06:45:29.807Z,19.50
2023-04-14T06:46:36.559Z,19.60
2023-04-14T06:47:39.550Z,19.70
2023-04-14T06:48:41.966Z,19.80
2023-04-14T06:49:44.610Z,19.80
2023-04-14T06:50:54.736Z,19.90
2023-04-14T06:51:57.112Z,19.90
2023-04-14T06:52:59.460Z,19.70
2023-04-14T06:54:02.109Z,19.30
2023-04-14T06:55:05.060Z,18.90
2023-04-14T06:56:08.204Z,18.70
2023-04-14T06:57:10.564Z,18.50
2023-04-14T06:58:13.048Z,18.40
2023-04-14T06:59:15.359Z,18.30
2023-04-14T07:00:18.006Z,18.40
2023-04-14T07:01:20.459Z,18.80
2023-04-14T07:02:23.893Z,19.10
2023-04-14T07:03:28.343Z,19.20
2023-04-14T07:04:30.781Z,19.30
2023-04-14T07:05:33.199Z,19.40
2023-04-14T07:06:36.045Z,19.50
2023-04-14T07:07:40.299Z,19.60
2023-04-14T07:08:43.593Z,19.70
2023-04-14T07:09:46.014Z,19.70
2023-04-14T07:10:48.479Z,19.80
2023-04-14T07:11:53.037Z,19.80
2023-04-14T07:12:56.524Z,19.90
2023-04-14T07:13:59.083Z,19.90
2023-04-14T07:15:01.841Z,19.90
2023-04-14T07:16:06.576Z,19.90
2023-04-14T07:17:18.919Z,19.90
2023-04-14T07:18:22.381Z,20.00
2023-04-14T07:19:24.845Z,20.00
2023-04-14T07:20:27.458Z,20.00
2023-04-14T07:21:29.871Z,20.10
2023-04-14T07:22:33.305Z,20.10
2023-04-14T07:23:35.785Z,20.10
2023-04-14T07:24:38.693Z,20.10
2023-04-14T07:25:41.079Z,20.10
2023-04-14T07:26:44.506Z,20.20
2023-04-14T07:28:00.363Z,20.10
2023-04-14T07:29:08.237Z,20.10
2023-04-14T07:30:11.567Z,20.20
2023-04-14T07:31:15.033Z,20.10
2023-04-14T07:32:17.485Z,20.20
2023-04-14T07:33:22.169Z,20.20
2023-04-14T07:34:24.721Z,20.20
2023-04-14T07:35:27.277Z,20.20
2023-04-14T07:36:32.755Z,20.00
2023-04-14T07:37:35.206Z,19.70
2023-04-14T07:38:37.632Z,19.60
2023-04-14T07:39:40.687Z,19.40
2023-04-14T07:40:43.134Z,19.40
2023-04-14T07:41:45.721Z,19.40
2023-04-14T07:42:48.163Z,19.40
2023-04-14T07:43:50.812Z,19.40
2023-04-14T07:44:53.750Z,19.60
2023-04-14T07:45:56.401Z,19.70
2023-04-14T07:46:59.102Z,19.80
2023-04-14T07:48:01.866Z,19.90
2023-04-14T07:49:04.805Z,20.00
2023-04-14T07:50:12.665Z,20.00
2023-04-14T07:51:15.497Z,20.10
2023-04-14T07:52:18.340Z,20.10
2023-04-14T07:53:21.417Z,20.10
2023-04-14T07:54:24.499Z,20.20
2023-04-14T07:55:27.593Z,20.20
2023-04-14T07:56:30.688Z,20.20
2023-04-14T07:57:36.122Z,20.20
2023-04-14T07:58:40.240Z,20.20
2023-04-14T07:59:43.094Z,20.20
2023-04-14T08:00:46.011Z,20.30
2023-04-14T08:01:48.686Z,20.30
2023-04-14T08:02:51.476Z,20.30
2023-04-14T08:03:54.433Z,20.30
2023-04-14T08:04:57.633Z,20.30
2023-04-14T08:06:00.513Z,20.30
2023-04-14T08:07:02.995Z,20.30
2023-04-14T08:08:05.898Z,20.30
2023-04-14T08:09:08.425Z,20.40
2023-04-14T08:10:11.095Z,20.40
2023-04-14T08:11:13.964Z,20.30
2023-04-14T08:12:16.700Z,20.40
2023-04-14T08:13:22.182Z,20.40
2023-04-14T08:14:25.739Z,20.40
2023-04-14T08:15:28.288Z,20.40
2023-04-14T08:16:31.101Z,20.40
2023-04-14T08:17:36.332Z,20.40
2023-04-14T08:18:41.288Z,20.40
2023-04-14T08:19:43.826Z,20.40
2023-04-14T08:20:46.399Z,20.40
2023-04-14T08:21:48.875Z,20.30
2023-04-14T08:22:53.426Z,20.10
2023-04-14T08:23:56.059Z,19.90
2023-04-14T08:24:58.653Z,19.70
2023-04-14T08:26:01.488Z,19.60
2023-04-14T08:27:06.448Z,19.50
2023-04-14T08:28:11.432Z,19.50
2023-04-14T08:29:14.221Z,19.50
2023-04-14T08:30:16.795Z,19.40
2023-04-14T08:31:20.305Z,19.30
2023-04-14T08:32:30.970Z,19.30
2023-04-14T08:33:34.051Z,19.30
2023-04-14T08:34:38.012Z,19.20
2023-04-14T08:35:44.539Z,19.30
2023-04-14T08:36:51.849Z,19.60
2023-04-14T08:37:56.810Z,19.80
2023-04-14T08:39:02.058Z,19.90
2023-04-14T08:40:09.098Z,20.00
2023-04-14T08:41:14.673Z,20.00
2023-04-14T08:42:17.387Z,20.00
2023-04-14T08:43:20.666Z,20.00
2023-04-14T08:44:23.202Z,20.00
2023-04-14T08:45:26.095Z,19.90
2023-04-14T08:46:29.346Z,19.90
2023-04-14T08:47:35.334Z,19.90
2023-04-14T08:48:39.080Z,19.90
2023-04-14T08:49:46.214Z,19.80
2023-04-14T08:51:05.297Z,19.80
2023-04-14T08:52:13.732Z,19.90
2023-04-14T08:53:18.371Z,20.00
2023-04-14T08:54:21.546Z,19.90
2023-04-14T08:55:25.316Z,19.80
2023-04-14T08:56:33.409Z,19.60
2023-04-14T08:57:36.645Z,19.50
2023-04-14T08:58:39.506Z,19.50
2023-04-14T08:59:42.344Z,19.60
2023-04-14T09:00:45.853Z,19.60
2023-04-14T09:01:50.118Z,19.70
2023-04-14T09:02:54.397Z,19.70
2023-04-14T09:03:57.991Z,19.60
2023-04-14T09:05:01.313Z,19.60
2023-04-14T09:06:05.281Z,19.70
2023-04-14T09:07:07.760Z,19.80
2023-04-14T09:08:11.210Z,19.90
2023-04-14T09:09:13.873Z,19.90
2023-04-14T09:10:17.115Z,19.90
2023-04-14T09:11:19.861Z,19.80
2023-04-14T09:12:24.131Z,19.80
2023-04-14T09:13:28.374Z,19.70
2023-04-14T09:14:30.961Z,19.60
2023-04-14T09:15:33.627Z,19.50
2023-04-14T09:16:37.678Z,19.60
2023-04-14T09:17:40.473Z,19.40
2023-04-14T09:18:43.812Z,19.40
2023-04-14T09:20:36.046Z,19.30
2023-04-14T09:21:32.985Z,19.40
2023-04-14T09:22:35.732Z,19.40
2023-04-14T09:23:41.713Z,19.50
2023-04-14T09:24:44.452Z,19.60
2023-04-14T09:25:46.971Z,19.60
2023-04-14T09:26:50.386Z,19.60
2023-04-14T09:27:53.788Z,19.60
2023-04-14T09:28:56.844Z,19.50
2023-04-14T09:30:00.210Z,19.40
2023-04-14T09:31:04.759Z,19.20
2023-04-14T09:32:09.393Z,19.30
2023-04-14T09:33:23.154Z,19.30
2023-04-14T09:34:26.660Z,19.10
2023-04-14T09:35:55.542Z,19.00
2023-04-14T09:37:09.694Z,19.00
2023-04-14T09:38:12.194Z,19.10
2023-04-14T09:39:17.926Z,19.20
2023-04-14T09:40:30.246Z,19.40
2023-04-14T09:41:32.751Z,19.50
2023-04-14T09:42:42.780Z,19.60
2023-04-14T09:43:49.601Z,19.70
2023-04-14T09:44:59.352Z,19.60
2023-04-14T09:46:07.599Z,19.70
2023-04-14T09:47:15.564Z,19.70
2023-04-14T09:48:19.475Z,19.70
2023-04-14T09:49:21.896Z,19.70
2023-04-14T09:50:25.294Z,19.70
2023-04-14T09:51:30.257Z,19.70
2023-04-14T09:52:44.544Z,19.50
2023-04-14T09:53:48.689Z,19.40
2023-04-14T09:54:56.211Z,19.40
2023-04-14T09:56:02.627Z,19.50
2023-04-14T09:57:06.275Z,19.50
2023-04-14T09:58:10.666Z,19.60
2023-04-14T09:59:13.631Z,19.60
2023-04-14T10:00:16.016Z,19.70
2023-04-14T10:01:27.795Z,19.70
2023-04-14T10:02:30.756Z,19.60
2023-04-14T10:03:39.513Z,19.70
2023-04-14T10:04:42.516Z,19.70
2023-04-14T10:05:48.040Z,19.80
2023-04-14T10:06:50.457Z,19.70
2023-04-14T10:07:52.882Z,19.60
2023-04-14T10:08:56.115Z,19.60
2023-04-14T10:10:06.877Z,19.60
2023-04-14T10:11:35.218Z,19.70
2023-04-14T10:12:37.944Z,19.70
2023-04-14T10:13:40.521Z,19.70
2023-04-14T10:14:44.008Z,19.70
2023-04-14T10:15:46.665Z,19.70
2023-04-14T10:16:49.026Z,19.80
2023-04-14T10:17:51.546Z,19.70
2023-04-14T10:18:55.241Z,19.70
2023-04-14T10:19:58.084Z,19.80
2023-04-14T10:21:03.301Z,19.80
2023-04-14T10:22:06.376Z,19.70
2023-04-14T10:23:09.900Z,19.80
2023-04-14T10:24:12.869Z,19.80
2023-04-14T10:25:16.344Z,19.80
2023-04-14T10:26:20.043Z,19.80
2023-04-14T10:27:22.832Z,19.80
2023-04-14T10:28:28.649Z,19.70
2023-04-14T10:29:31.518Z,19.60
2023-04-14T10:30:34.243Z,19.60
2023-04-14T10:31:40.346Z,19.60
2023-04-14T10:32:47.185Z,19.60
2023-04-14T10:33:49.805Z,19.50
2023-04-14T10:35:05.836Z,19.50
2023-04-14T10:36:09.376Z,19.50
2023-04-14T10:37:16.137Z,19.70
2023-04-14T10:38:19.808Z,19.80
2023-04-14T10:39:27.630Z,19.70
2023-04-14T10:40:46.291Z,19.50
2023-04-14T10:41:50.238Z,19.60
2023-04-14T10:42:56.449Z,19.60
2023-04-14T10:43:59.037Z,19.60
2023-04-14T10:45:05.858Z,19.60
2023-04-14T10:46:12.500Z,19.70
2023-04-14T10:47:24.875Z,19.60
2023-04-14T10:48:33.481Z,19.70
2023-04-14T10:49:38.888Z,19.70
2023-04-14T10:50:48.871Z,19.70
2023-04-14T10:51:52.120Z,19.70
2023-04-14T10:52:56.283Z,19.80
2023-04-14T10:54:03.411Z,19.80
2023-04-14T10:55:09.938Z,19.90
2023-04-14T10:56:13.157Z,19.80
2023-04-14T10:57:15.669Z,19.80
2023-04-14T10:58:20.506Z,19.80
2023-04-14T10:59:24.000Z,19.70
2023-04-14T11:00:31.945Z,19.70
2023-04-14T11:01:36.498Z,19.70
2023-04-14T11:02:39.054Z,19.70
2023-04-14T11:03:45.161Z,19.70
2023-04-14T11:05:12.151Z,19.90
2023-04-14T11:06:47.456Z,19.90
2023-04-14T11:08:00.676Z,19.90
2023-04-14T11:09:25.349Z,19.90
2023-04-14T11:10:30.988Z,19.80
2023-04-14T11:11:34.037Z,19.70
2023-04-14T11:12:43.108Z,19.70
2023-04-14T11:14:05.942Z,19.90
2023-04-14T11:15:09.843Z,19.90
2023-04-14T11:16:12.724Z,19.80
2023-04-14T11:17:22.844Z,19.90
2023-04-14T11:18:37.434Z,19.90
2023-04-14T11:19:40.869Z,19.90
2023-04-14T11:20:43.937Z,20.00
2023-04-14T11:21:50.178Z,20.00
2023-04-14T11:22:55.084Z,20.10
2023-04-14T11:23:59.307Z,20.10
2023-04-14T11:25:02.480Z,20.10
2023-04-14T11:26:06.701Z,20.20
2023-04-14T11:27:11.792Z,20.20
2023-04-14T11:28:14.438Z,20.20
2023-04-14T11:29:17.648Z,20.30
2023-04-14T11:30:21.465Z,20.20
2023-04-14T11:31:27.583Z,20.10
2023-04-14T11:32:32.080Z,20.10
2023-04-14T11:33:37.074Z,20.00
2023-04-14T11:34:39.535Z,20.00
2023-04-14T11:35:42.397Z,19.90
2023-04-14T11:36:44.864Z,19.90
2023-04-14T11:37:47.584Z,20.00
2023-04-14T11:38:50.069Z,20.00
2023-04-14T11:39:52.448Z,19.90
2023-04-14T11:40:56.444Z,19.90
2023-04-14T11:42:01.892Z,19.90
2023-04-14T11:43:06.673Z,19.90
2023-04-14T11:44:10.116Z,19.90
2023-04-14T11:45:15.773Z,19.90
2023-04-14T11:46:22.376Z,20.00
2023-04-14T11:47:24.978Z,20.00
2023-04-14T11:48:29.201Z,20.00
2023-04-14T11:49:37.738Z,20.10
2023-04-14T11:50:41.315Z,20.10
2023-04-14T11:51:43.667Z,20.10
2023-04-14T11:52:46.801Z,20.10
2023-04-14T11:53:49.206Z,20.10
2023-04-14T11:54:51.812Z,20.20
2023-04-14T11:55:54.469Z,20.30
2023-04-14T11:56:56.918Z,20.30
2023-04-14T11:58:00.205Z,20.30
2023-04-14T11:59:04.875Z,20.10
2023-04-14T12:00:08.961Z,20.00
2023-04-14T12:01:14.409Z,20.00
2023-04-14T12:02:21.914Z,20.10
2023-04-14T12:03:29.485Z,20.10
2023-04-14T12:04:32.578Z,20.10
2023-04-14T12:05:35.737Z,19.80
2023-04-14T12:06:39.414Z,19.80
2023-04-14T12:07:45.754Z,19.80
2023-04-14T12:08:56.878Z,19.80
2023-04-14T12:09:59.563Z,20.00
2023-04-14T12:11:15.697Z,20.00
2023-04-14T12:12:20.268Z,20.10
2023-04-14T12:13:23.390Z,20.10
2023-04-14T12:14:26.750Z,20.00
2023-04-14T12:15:36.588Z,20.00
2023-04-14T12:16:39.257Z,19.90
2023-04-14T12:17:42.693Z,20.00
2023-04-14T12:18:45.544Z,19.90
2023-04-14T12:19:49.042Z,19.80
2023-04-14T12:20:56.216Z,19.70
2023-04-14T12:21:59.581Z,19.70
2023-04-14T12:23:03.147Z,19.60
2023-04-14T12:24:05.867Z,19.70
2023-04-14T12:25:12.758Z,20.00
2023-04-14T12:26:15.438Z,20.00
2023-04-14T12:27:24.622Z,20.10
2023-04-14T12:28:28.907Z,20.00
2023-04-14T12:29:37.189Z,20.00
2023-04-14T12:30:54.137Z,20.00
2023-04-14T12:31:56.824Z,19.90
2023-04-14T12:32:59.381Z,19.90
2023-04-14T12:34:04.185Z,19.90
2023-04-14T12:35:09.168Z,19.90
2023-04-14T12:36:15.280Z,19.90
2023-04-14T12:37:18.336Z,20.00
2023-04-14T12:38:27.533Z,19.80
2023-04-14T12:39:29.949Z,19.60
2023-04-14T12:40:45.913Z,19.60
2023-04-14T12:41:48.949Z,19.60
2023-04-14T12:42:52.052Z,19.60
2023-04-14T12:43:54.537Z,19.70
2023-04-14T12:45:03.066Z,19.80
2023-04-14T12:46:06.898Z,19.80
2023-04-14T12:47:09.492Z,19.70
2023-04-14T12:48:13.429Z,19.70
2023-04-14T12:49:39.857Z,19.70
2023-04-14T12:50:42.534Z,19.40
2023-04-14T12:51:44.832Z,19.30
2023-04-14T12:52:47.570Z,19.20
2023-04-14T12:53:50.531Z,19.30
2023-04-14T12:54:53.479Z,19.40
2023-04-14T12:56:12.158Z,19.50
2023-04-14T12:57:15.110Z,19.60
2023-04-14T12:58:18.254Z,19.70
2023-04-14T12:59:21.054Z,19.80
2023-04-14T13:00:28.842Z,19.90
2023-04-14T13:01:31.587Z,20.00
2023-04-14T13:02:35.351Z,20.00
2023-04-14T13:03:47.781Z,19.90
2023-04-14T13:04:50.438Z,19.90
2023-04-14T13:05:54.927Z,19.90
2023-04-14T13:06:57.428Z,20.00
2023-04-14T13:07:59.802Z,19.90
2023-04-14T13:09:02.447Z,19.90
2023-04-14T13:10:05.865Z,19.90
2023-04-14T13:11:08.291Z,20.00
2023-04-14T13:12:10.768Z,20.00
2023-04-14T13:13:13.149Z,20.10
2023-04-14T13:14:15.506Z,20.10
2023-04-14T13:15:32.600Z,20.10
2023-04-14T13:16:40.356Z,19.90
2023-04-14T13:17:42.863Z,19.90
2023-04-14T13:18:47.180Z,19.90
2023-04-14T13:19:49.632Z,19.80
2023-04-14T13:20:55.886Z,19.90
2023-04-14T13:22:00.563Z,19.90
2023-04-14T13:23:03.012Z,19.90
2023-04-14T13:24:06.998Z,19.90
2023-04-14T13:25:09.559Z,19.70
2023-04-14T13:26:12.983Z,19.60
2023-04-14T13:27:16.493Z,19.70
2023-04-14T13:28:19.060Z,19.80
2023-04-14T13:29:22.120Z,19.80
2023-04-14T13:30:24.526Z,19.90
2023-04-14T13:31:26.894Z,19.90
2023-04-14T13:32:29.436Z,19.90
2023-04-14T13:33:33.158Z,19.90
2023-04-14T13:34:37.201Z,20.00
2023-04-14T13:35:40.137Z,20.20
2023-04-14T13:36:42.652Z,20.30
2023-04-14T13:37:46.272Z,20.30
2023-04-14T13:38:48.808Z,20.30
2023-04-14T13:39:51.360Z,20.30
2023-04-14T13:40:53.850Z,20.30
2023-04-14T13:41:56.496Z,20.40
2023-04-14T13:42:59.013Z,20.40
2023-04-14T13:44:01.401Z,20.40
2023-04-14T13:45:04.176Z,20.40
2023-04-14T13:46:07.030Z,20.40
2023-04-14T13:47:09.762Z,20.50
2023-04-14T13:48:12.518Z,20.50
2023-04-14T13:49:15.019Z,20.50
2023-04-14T13:50:19.439Z,20.50
2023-04-14T13:51:23.595Z,20.50
2023-04-14T13:52:26.244Z,20.50
2023-04-14T13:53:28.675Z,20.60
2023-04-14T13:54:31.077Z,20.50
2023-04-14T13:55:34.593Z,20.50
2023-04-14T13:56:37.100Z,20.50
2023-04-14T13:57:39.616Z,20.60
2023-04-14T13:58:42.125Z,20.50
2023-04-14T13:59:44.771Z,20.60
2023-04-14T14:00:47.230Z,20.60
2023-04-14T14:01:50.574Z,20.70
2023-04-14T14:02:53.250Z,20.60
2023-04-14T14:03:56.034Z,20.60
2023-04-14T14:04:59.521Z,20.70
2023-04-14T14:06:02.023Z,20.70
2023-04-14T14:07:04.498Z,20.70
2023-04-14T14:08:06.964Z,20.60
2023-04-14T14:09:09.656Z,20.70
2023-04-14T14:10:12.531Z,20.60
2023-04-14T14:11:15.007Z,20.70
2023-04-14T14:12:17.551Z,20.70
2023-04-14T14:13:21.716Z,20.70